sensor_id;sensor_type;location;lat;lon;timestamp;P1;durP1;ratioP1;P2;durP2;ratioP2
39888;SDS011;25563;50.844;4.308;2024-03-23T00:54:11;16.95;;;4.00;;
39888;SDS011;25563;50.844;4.308;2024-03-23T00:56:38;17.23;;;3.45;;
39888;SDS011;25563;50.844;4.308;2024-03-23T00:59:04;12.20;;;4.10;;
39888;SDS011;25563;50.844;4.308;2024-03-23T01:01:33;12.10;;;3.50;;
39888;SDS011;25563;50.844;4.308;2024-03-23T01:03:58;11.77;;;4.50;;
39888;SDS011;25563;50.844;4.308;2024-03-23T01:06:24;11.18;;;3.90;;
39888;SDS011;25563;50.844;4.308;2024-03-23T01:08:50;13.55;;;4.80;;
39888;SDS011;25563;50.844;4.308;2024-03-23T01:11:18;10.60;;;3.55;;
39888;SDS011;25563;50.844;4.308;2024-03-23T01:13:43;15.23;;;4.05;;
39888;SDS011;25563;50.844;4.308;2024-03-23T01:16:09;12.00;;;4.47;;
39888;SDS011;25563;50.844;4.308;2024-03-23T01:18:35;12.18;;;5.13;;
39888;SDS011;25563;50.844;4.308;2024-03-23T01:21:01;13.15;;;4.43;;
39888;SDS011;25563;50.844;4.308;2024-03-23T01:23:27;13.60;;;4.93;;
39888;SDS011;25563;50.844;4.308;2024-03-23T01:25:54;9.73;;;4.95;;
39888;SDS011;25563;50.844;4.308;2024-03-23T01:28:22;15.00;;;5.53;;
39888;SDS011;25563;50.844;4.308;2024-03-23T01:30:49;15.88;;;4.90;;
39888;SDS011;25563;50.844;4.308;2024-03-23T01:33:15;15.18;;;6.38;;
39888;SDS011;25563;50.844;4.308;2024-03-23T01:35:41;15.23;;;5.07;;
39888;SDS011;25563;50.844;4.308;2024-03-23T01:38:12;14.50;;;5.47;;
39888;SDS011;25563;50.844;4.308;2024-03-23T01:40:42;17.35;;;6.28;;
39888;SDS011;25563;50.844;4.308;2024-03-23T01:43:08;18.98;;;6.82;;
39888;SDS011;25563;50.844;4.308;2024-03-23T01:45:34;11.88;;;6.18;;
39888;SDS011;25563;50.844;4.308;2024-03-23T01:48:00;18.83;;;6.78;;
39888;SDS011;25563;50.844;4.308;2024-03-23T01:50:30;22.02;;;7.22;;
39888;SDS011;25563;50.844;4.308;2024-03-23T01:52:58;20.60;;;7.10;;
39888;SDS011;25563;50.844;4.308;2024-03-23T01:55:28;22.70;;;8.20;;
39888;SDS011;25563;50.844;4.308;2024-03-23T01:57:56;15.43;;;7.40;;
39888;SDS011;25563;50.844;4.308;2024-03-23T02:00:22;18.65;;;9.05;;
39888;SDS011;25563;50.844;4.308;2024-03-23T02:02:53;17.48;;;7.75;;
39888;SDS011;25563;50.844;4.308;2024-03-23T02:05:22;21.00;;;8.18;;
39888;SDS011;25563;50.844;4.308;2024-03-23T02:07:48;17.30;;;7.60;;
39888;SDS011;25563;50.844;4.308;2024-03-23T02:10:15;17.33;;;7.90;;
39888;SDS011;25563;50.844;4.308;2024-03-23T02:12:41;24.17;;;8.45;;
39888;SDS011;25563;50.844;4.308;2024-03-23T02:15:07;26.95;;;9.80;;
39888;SDS011;25563;50.844;4.308;2024-03-23T02:17:39;18.23;;;8.75;;
39888;SDS011;25563;50.844;4.308;2024-03-23T02:20:05;25.17;;;8.75;;
39888;SDS011;25563;50.844;4.308;2024-03-23T02:22:38;26.70;;;10.90;;
39888;SDS011;25563;50.844;4.308;2024-03-23T02:25:05;31.83;;;10.85;;
39888;SDS011;25563;50.844;4.308;2024-03-23T02:27:34;33.60;;;12.18;;
39888;SDS011;25563;50.844;4.308;2024-03-23T02:32:31;37.38;;;11.52;;
39888;SDS011;25563;50.844;4.308;2024-03-23T02:34:57;28.20;;;12.57;;
39888;SDS011;25563;50.844;4.308;2024-03-23T02:37:23;35.13;;;12.73;;
39888;SDS011;25563;50.844;4.308;2024-03-23T02:39:52;36.58;;;13.77;;
39888;SDS011;25563;50.844;4.308;2024-03-23T02:42:19;31.55;;;11.63;;
39888;SDS011;25563;50.844;4.308;2024-03-23T02:44:45;36.05;;;12.48;;
39888;SDS011;25563;50.844;4.308;2024-03-23T02:47:12;40.83;;;13.18;;
39888;SDS011;25563;50.844;4.308;2024-03-23T02:49:38;38.92;;;13.32;;
39888;SDS011;25563;50.844;4.308;2024-03-23T02:52:05;39.92;;;12.68;;
39888;SDS011;25563;50.844;4.308;2024-03-23T02:54:35;34.13;;;11.70;;
39888;SDS011;25563;50.844;4.308;2024-03-23T02:57:01;34.65;;;12.27;;
39888;SDS011;25563;50.844;4.308;2024-03-23T02:59:27;36.47;;;12.23;;
39888;SDS011;25563;50.844;4.308;2024-03-23T03:01:54;31.50;;;12.70;;
39888;SDS011;25563;50.844;4.308;2024-03-23T03:04:21;32.78;;;12.75;;
39888;SDS011;25563;50.844;4.308;2024-03-23T03:06:47;33.65;;;11.55;;
39888;SDS011;25563;50.844;4.308;2024-03-23T03:09:13;36.78;;;12.13;;
39888;SDS011;25563;50.844;4.308;2024-03-23T03:11:39;38.45;;;11.05;;
39888;SDS011;25563;50.844;4.308;2024-03-23T03:14:05;36.17;;;10.93;;
39888;SDS011;25563;50.844;4.308;2024-03-23T03:16:32;20.88;;;10.95;;
39888;SDS011;25563;50.844;4.308;2024-03-23T03:18:59;45.58;;;13.40;;
39888;SDS011;25563;50.844;4.308;2024-03-23T03:21:26;28.48;;;11.88;;
39888;SDS011;25563;50.844;4.308;2024-03-23T03:23:52;35.15;;;12.18;;
39888;SDS011;25563;50.844;4.308;2024-03-23T03:26:18;47.95;;;11.65;;
39888;SDS011;25563;50.844;4.308;2024-03-23T03:28:45;35.47;;;12.23;;
39888;SDS011;25563;50.844;4.308;2024-03-23T03:31:14;29.73;;;12.75;;
39888;SDS011;25563;50.844;4.308;2024-03-23T03:33:41;30.30;;;12.13;;
39888;SDS011;25563;50.844;4.308;2024-03-23T03:36:07;30.42;;;12.02;;
39888;SDS011;25563;50.844;4.308;2024-03-23T03:38:34;41.80;;;12.48;;
39888;SDS011;25563;50.844;4.308;2024-03-23T03:41:02;33.08;;;12.60;;
39888;SDS011;25563;50.844;4.308;2024-03-23T03:43:28;27.20;;;11.73;;
39888;SDS011;25563;50.844;4.308;2024-03-23T03:45:54;32.67;;;13.05;;
39888;SDS011;25563;50.844;4.308;2024-03-23T03:48:21;28.88;;;13.27;;
39888;SDS011;25563;50.844;4.308;2024-03-23T03:50:47;44.40;;;13.57;;
39888;SDS011;25563;50.844;4.308;2024-03-23T03:53:13;42.08;;;13.52;;
39888;SDS011;25563;50.844;4.308;2024-03-23T03:55:38;36.20;;;12.90;;
39888;SDS011;25563;50.844;4.308;2024-03-23T03:58:04;28.42;;;12.80;;
39888;SDS011;25563;50.844;4.308;2024-03-23T04:00:33;36.05;;;12.68;;
39888;SDS011;25563;50.844;4.308;2024-03-23T04:02:59;30.73;;;12.30;;
39888;SDS011;25563;50.844;4.308;2024-03-23T04:05:24;25.10;;;11.35;;
39888;SDS011;25563;50.844;4.308;2024-03-23T04:07:50;24.30;;;10.70;;
39888;SDS011;25563;50.844;4.308;2024-03-23T04:10:16;23.52;;;8.80;;
39888;SDS011;25563;50.844;4.308;2024-03-23T04:12:43;16.20;;;8.82;;
39888;SDS011;25563;50.844;4.308;2024-03-23T04:15:09;19.15;;;8.57;;
39888;SDS011;25563;50.844;4.308;2024-03-23T04:17:35;17.17;;;7.72;;
39888;SDS011;25563;50.844;4.308;2024-03-23T04:20:01;25.88;;;7.78;;
39888;SDS011;25563;50.844;4.308;2024-03-23T04:22:29;20.02;;;7.22;;
39888;SDS011;25563;50.844;4.308;2024-03-23T04:24:55;16.90;;;7.18;;
39888;SDS011;25563;50.844;4.308;2024-03-23T04:27:22;13.98;;;6.30;;
39888;SDS011;25563;50.844;4.308;2024-03-23T04:29:49;15.65;;;6.28;;
39888;SDS011;25563;50.844;4.308;2024-03-23T04:32:15;18.73;;;6.47;;
39888;SDS011;25563;50.844;4.308;2024-03-23T04:34:43;20.80;;;6.13;;
39888;SDS011;25563;50.844;4.308;2024-03-23T04:37:09;14.38;;;5.30;;
39888;SDS011;25563;50.844;4.308;2024-03-23T04:39:37;18.75;;;6.35;;
39888;SDS011;25563;50.844;4.308;2024-03-23T04:42:04;17.80;;;6.95;;
39888;SDS011;25563;50.844;4.308;2024-03-23T04:44:31;19.77;;;6.82;;
39888;SDS011;25563;50.844;4.308;2024-03-23T04:46:57;23.00;;;6.53;;
39888;SDS011;25563;50.844;4.308;2024-03-23T04:49:22;13.80;;;6.90;;
39888;SDS011;25563;50.844;4.308;2024-03-23T04:51:49;18.67;;;7.28;;
39888;SDS011;25563;50.844;4.308;2024-03-23T04:54:17;22.23;;;7.97;;
39888;SDS011;25563;50.844;4.308;2024-03-23T04:56:43;25.88;;;7.03;;
39888;SDS011;25563;50.844;4.308;2024-03-23T04:59:08;20.23;;;7.28;;
39888;SDS011;25563;50.844;4.308;2024-03-23T05:01:34;21.17;;;7.35;;
39888;SDS011;25563;50.844;4.308;2024-03-23T05:04:03;15.13;;;6.95;;
39888;SDS011;25563;50.844;4.308;2024-03-23T05:06:29;25.77;;;9.18;;
39888;SDS011;25563;50.844;4.308;2024-03-23T05:08:55;19.17;;;8.07;;
39888;SDS011;25563;50.844;4.308;2024-03-23T05:11:21;22.75;;;8.85;;
39888;SDS011;25563;50.844;4.308;2024-03-23T05:13:47;19.52;;;8.00;;
39888;SDS011;25563;50.844;4.308;2024-03-23T05:16:12;29.42;;;8.95;;
39888;SDS011;25563;50.844;4.308;2024-03-23T05:18:38;20.42;;;8.55;;
39888;SDS011;25563;50.844;4.308;2024-03-23T05:21:04;19.15;;;8.05;;
39888;SDS011;25563;50.844;4.308;2024-03-23T05:23:30;24.20;;;8.02;;
39888;SDS011;25563;50.844;4.308;2024-03-23T05:25:55;26.08;;;9.32;;
39888;SDS011;25563;50.844;4.308;2024-03-23T05:28:21;27.77;;;8.20;;
39888;SDS011;25563;50.844;4.308;2024-03-23T05:30:53;21.98;;;7.88;;
39888;SDS011;25563;50.844;4.308;2024-03-23T05:33:20;30.80;;;7.25;;
39888;SDS011;25563;50.844;4.308;2024-03-23T05:35:47;19.20;;;6.15;;
39888;SDS011;25563;50.844;4.308;2024-03-23T05:38:20;20.50;;;5.55;;
39888;SDS011;25563;50.844;4.308;2024-03-23T05:40:56;18.65;;;5.53;;
39888;SDS011;25563;50.844;4.308;2024-03-23T05:43:23;10.88;;;5.00;;
39888;SDS011;25563;50.844;4.308;2024-03-23T05:45:55;15.25;;;5.05;;
39888;SDS011;25563;50.844;4.308;2024-03-23T05:48:22;23.42;;;5.05;;
39888;SDS011;25563;50.844;4.308;2024-03-23T05:50:48;14.63;;;4.47;;
39888;SDS011;25563;50.844;4.308;2024-03-23T05:53:16;17.52;;;5.22;;
39888;SDS011;25563;50.844;4.308;2024-03-23T05:55:43;17.10;;;4.38;;
39888;SDS011;25563;50.844;4.308;2024-03-23T05:58:09;17.13;;;5.43;;
39888;SDS011;25563;50.844;4.308;2024-03-23T06:00:35;14.73;;;4.25;;
39888;SDS011;25563;50.844;4.308;2024-03-23T06:03:02;22.08;;;3.83;;
39888;SDS011;25563;50.844;4.308;2024-03-23T06:05:28;20.13;;;3.80;;
39888;SDS011;25563;50.844;4.308;2024-03-23T06:07:53;10.00;;;4.10;;
39888;SDS011;25563;50.844;4.308;2024-03-23T06:10:19;24.00;;;3.58;;
39888;SDS011;25563;50.844;4.308;2024-03-23T06:12:49;18.88;;;3.67;;
39888;SDS011;25563;50.844;4.308;2024-03-23T06:15:17;14.93;;;3.15;;
39888;SDS011;25563;50.844;4.308;2024-03-23T06:17:45;20.77;;;4.30;;
39888;SDS011;25563;50.844;4.308;2024-03-23T06:20:12;19.25;;;4.05;;
39888;SDS011;25563;50.844;4.308;2024-03-23T06:22:38;10.70;;;3.05;;
39888;SDS011;25563;50.844;4.308;2024-03-23T06:25:04;13.40;;;3.85;;
39888;SDS011;25563;50.844;4.308;2024-03-23T06:27:30;14.75;;;3.40;;
39888;SDS011;25563;50.844;4.308;2024-03-23T06:29:57;6.20;;;2.78;;
39888;SDS011;25563;50.844;4.308;2024-03-23T06:32:27;16.88;;;3.30;;
39888;SDS011;25563;50.844;4.308;2024-03-23T06:34:54;13.50;;;3.03;;
39888;SDS011;25563;50.844;4.308;2024-03-23T06:37:20;21.05;;;3.85;;
39888;SDS011;25563;50.844;4.308;2024-03-23T06:39:46;20.05;;;2.78;;
39888;SDS011;25563;50.844;4.308;2024-03-23T06:42:12;23.33;;;4.25;;
39888;SDS011;25563;50.844;4.308;2024-03-23T06:44:38;24.30;;;5.97;;
39888;SDS011;25563;50.844;4.308;2024-03-23T06:47:04;14.45;;;3.30;;
39888;SDS011;25563;50.844;4.308;2024-03-23T06:49:30;18.30;;;2.92;;
39888;SDS011;25563;50.844;4.308;2024-03-23T06:51:56;22.60;;;3.25;;
39888;SDS011;25563;50.844;4.308;2024-03-23T06:54:24;19.98;;;3.05;;
39888;SDS011;25563;50.844;4.308;2024-03-23T06:56:50;21.02;;;3.30;;
39888;SDS011;25563;50.844;4.308;2024-03-23T06:59:16;24.83;;;4.20;;
39888;SDS011;25563;50.844;4.308;2024-03-23T07:01:41;21.83;;;5.18;;
39888;SDS011;25563;50.844;4.308;2024-03-23T07:04:08;17.05;;;3.90;;
39888;SDS011;25563;50.844;4.308;2024-03-23T07:06:44;25.33;;;3.70;;
39888;SDS011;25563;50.844;4.308;2024-03-23T07:09:11;13.40;;;2.95;;
39888;SDS011;25563;50.844;4.308;2024-03-23T07:11:38;8.75;;;2.90;;
39888;SDS011;25563;50.844;4.308;2024-03-23T07:14:03;15.57;;;3.22;;
39888;SDS011;25563;50.844;4.308;2024-03-23T07:16:30;14.65;;;3.67;;
39888;SDS011;25563;50.844;4.308;2024-03-23T07:18:56;18.30;;;3.83;;
39888;SDS011;25563;50.844;4.308;2024-03-23T07:21:22;17.08;;;3.80;;
39888;SDS011;25563;50.844;4.308;2024-03-23T07:23:51;18.77;;;4.05;;
39888;SDS011;25563;50.844;4.308;2024-03-23T07:26:17;11.27;;;3.63;;
39888;SDS011;25563;50.844;4.308;2024-03-23T07:28:44;35.53;;;4.20;;
39888;SDS011;25563;50.844;4.308;2024-03-23T07:31:13;33.45;;;5.60;;
39888;SDS011;25563;50.844;4.308;2024-03-23T07:33:46;24.42;;;4.30;;
39888;SDS011;25563;50.844;4.308;2024-03-23T07:36:13;19.63;;;3.72;;
39888;SDS011;25563;50.844;4.308;2024-03-23T07:38:40;20.48;;;3.80;;
39888;SDS011;25563;50.844;4.308;2024-03-23T07:41:10;15.75;;;3.83;;
39888;SDS011;25563;50.844;4.308;2024-03-23T07:43:56;16.90;;;3.93;;
39888;SDS011;25563;50.844;4.308;2024-03-23T07:46:30;16.37;;;3.50;;
39888;SDS011;25563;50.844;4.308;2024-03-23T07:49:10;22.90;;;4.50;;
39888;SDS011;25563;50.844;4.308;2024-03-23T07:51:36;15.48;;;2.95;;
39888;SDS011;25563;50.844;4.308;2024-03-23T07:54:10;24.45;;;3.80;;
39888;SDS011;25563;50.844;4.308;2024-03-23T07:56:43;12.95;;;3.45;;
39888;SDS011;25563;50.844;4.308;2024-03-23T07:59:13;15.88;;;3.72;;
39888;SDS011;25563;50.844;4.308;2024-03-23T08:01:51;19.40;;;4.60;;
39888;SDS011;25563;50.844;4.308;2024-03-23T08:04:17;22.25;;;3.42;;
39888;SDS011;25563;50.844;4.308;2024-03-23T08:06:46;17.10;;;3.72;;
39888;SDS011;25563;50.844;4.308;2024-03-23T08:09:12;21.60;;;3.63;;
39888;SDS011;25563;50.844;4.308;2024-03-23T08:11:40;25.15;;;3.63;;
39888;SDS011;25563;50.844;4.308;2024-03-23T08:14:09;16.27;;;3.25;;
39888;SDS011;25563;50.844;4.308;2024-03-23T08:16:35;13.75;;;4.25;;
39888;SDS011;25563;50.844;4.308;2024-03-23T08:19:04;21.00;;;4.67;;
39888;SDS011;25563;50.844;4.308;2024-03-23T08:21:32;18.55;;;3.47;;
39888;SDS011;25563;50.844;4.308;2024-03-23T08:24:03;7.00;;;2.75;;
39888;SDS011;25563;50.844;4.308;2024-03-23T08:26:42;15.85;;;3.42;;
39888;SDS011;25563;50.844;4.308;2024-03-23T08:29:15;13.85;;;3.83;;
39888;SDS011;25563;50.844;4.308;2024-03-23T08:34:24;15.45;;;3.13;;
39888;SDS011;25563;50.844;4.308;2024-03-23T08:39:37;14.43;;;2.65;;
39888;SDS011;25563;50.844;4.308;2024-03-23T08:42:03;15.77;;;3.28;;
39888;SDS011;25563;50.844;4.308;2024-03-23T08:44:31;12.88;;;2.75;;
39888;SDS011;25563;50.844;4.308;2024-03-23T08:47:06;10.27;;;3.15;;
39888;SDS011;25563;50.844;4.308;2024-03-23T08:52:14;11.85;;;3.20;;
39888;SDS011;25563;50.844;4.308;2024-03-23T08:57:40;8.75;;;1.92;;
39888;SDS011;25563;50.844;4.308;2024-03-23T09:07:07;14.25;;;3.20;;
39888;SDS011;25563;50.844;4.308;2024-03-23T09:10:04;11.88;;;2.67;;
39888;SDS011;25563;50.844;4.308;2024-03-23T09:12:32;21.10;;;3.55;;
39888;SDS011;25563;50.844;4.308;2024-03-23T09:15:00;14.25;;;3.40;;
39888;SDS011;25563;50.844;4.308;2024-03-23T09:17:26;12.60;;;3.22;;
39888;SDS011;25563;50.844;4.308;2024-03-23T09:19:53;6.47;;;2.83;;
39888;SDS011;25563;50.844;4.308;2024-03-23T09:22:21;10.63;;;2.80;;
39888;SDS011;25563;50.844;4.308;2024-03-23T09:24:47;21.00;;;2.97;;
39888;SDS011;25563;50.844;4.308;2024-03-23T09:27:13;10.32;;;2.78;;
39888;SDS011;25563;50.844;4.308;2024-03-23T09:29:39;9.48;;;2.35;;
39888;SDS011;25563;50.844;4.308;2024-03-23T09:32:05;13.13;;;3.17;;
39888;SDS011;25563;50.844;4.308;2024-03-23T09:34:36;11.75;;;2.40;;
39888;SDS011;25563;50.844;4.308;2024-03-23T09:37:04;6.97;;;2.55;;
39888;SDS011;25563;50.844;4.308;2024-03-23T09:39:30;7.53;;;2.30;;
39888;SDS011;25563;50.844;4.308;2024-03-23T09:41:57;8.82;;;2.05;;
39888;SDS011;25563;50.844;4.308;2024-03-23T09:44:23;7.63;;;1.90;;
39888;SDS011;25563;50.844;4.308;2024-03-23T09:46:52;7.80;;;2.30;;
39888;SDS011;25563;50.844;4.308;2024-03-23T09:49:19;7.07;;;2.17;;
39888;SDS011;25563;50.844;4.308;2024-03-23T09:51:45;9.63;;;2.03;;
39888;SDS011;25563;50.844;4.308;2024-03-23T09:54:11;11.27;;;1.98;;
39888;SDS011;25563;50.844;4.308;2024-03-23T09:56:37;11.35;;;2.45;;
39888;SDS011;25563;50.844;4.308;2024-03-23T09:59:05;7.53;;;2.40;;
39888;SDS011;25563;50.844;4.308;2024-03-23T10:01:33;5.60;;;2.13;;
39888;SDS011;25563;50.844;4.308;2024-03-23T10:03:59;7.95;;;2.28;;
39888;SDS011;25563;50.844;4.308;2024-03-23T10:06:25;3.90;;;2.38;;
39888;SDS011;25563;50.844;4.308;2024-03-23T10:11:22;7.30;;;2.50;;
39888;SDS011;25563;50.844;4.308;2024-03-23T10:13:53;7.97;;;1.85;;
39888;SDS011;25563;50.844;4.308;2024-03-23T10:16:23;8.60;;;2.20;;
39888;SDS011;25563;50.844;4.308;2024-03-23T10:18:53;7.30;;;1.80;;
39888;SDS011;25563;50.844;4.308;2024-03-23T10:21:19;8.00;;;2.65;;
39888;SDS011;25563;50.844;4.308;2024-03-23T10:23:45;9.75;;;2.17;;
39888;SDS011;25563;50.844;4.308;2024-03-23T10:28:51;7.50;;;1.92;;
39888;SDS011;25563;50.844;4.308;2024-03-23T10:31:26;8.90;;;1.90;;
39888;SDS011;25563;50.844;4.308;2024-03-23T10:33:57;6.63;;;2.00;;
39888;SDS011;25563;50.844;4.308;2024-03-23T10:36:23;14.23;;;2.08;;
39888;SDS011;25563;50.844;4.308;2024-03-23T10:38:52;4.97;;;1.65;;
39888;SDS011;25563;50.844;4.308;2024-03-23T10:41:19;5.53;;;1.42;;
39888;SDS011;25563;50.844;4.308;2024-03-23T10:43:48;4.78;;;1.52;;
39888;SDS011;25563;50.844;4.308;2024-03-23T10:46:16;12.77;;;1.70;;
39888;SDS011;25563;50.844;4.308;2024-03-23T10:48:43;7.18;;;1.63;;
39888;SDS011;25563;50.844;4.308;2024-03-23T10:51:09;5.20;;;1.55;;
39888;SDS011;25563;50.844;4.308;2024-03-23T10:53:35;8.55;;;2.13;;
39888;SDS011;25563;50.844;4.308;2024-03-23T10:56:05;5.47;;;1.40;;
39888;SDS011;25563;50.844;4.308;2024-03-23T10:58:39;5.40;;;1.88;;
39888;SDS011;25563;50.844;4.308;2024-03-23T11:01:13;6.13;;;1.35;;
39888;SDS011;25563;50.844;4.308;2024-03-23T11:03:47;5.20;;;1.45;;
39888;SDS011;25563;50.844;4.308;2024-03-23T11:06:34;5.90;;;1.52;;
39888;SDS011;25563;50.844;4.308;2024-03-23T11:09:50;16.75;;;2.05;;
39888;SDS011;25563;50.844;4.308;2024-03-23T11:12:24;6.05;;;1.40;;
39888;SDS011;25563;50.844;4.308;2024-03-23T11:15:00;9.98;;;1.63;;
39888;SDS011;25563;50.844;4.308;2024-03-23T11:17:28;6.35;;;1.63;;
39888;SDS011;25563;50.844;4.308;2024-03-23T11:20:04;3.03;;;1.00;;
39888;SDS011;25563;50.844;4.308;2024-03-23T11:27:53;4.85;;;1.35;;
39888;SDS011;25563;50.844;4.308;2024-03-23T11:30:22;3.58;;;1.20;;
39888;SDS011;25563;50.844;4.308;2024-03-23T11:32:54;5.78;;;1.38;;
39888;SDS011;25563;50.844;4.308;2024-03-23T11:35:27;7.45;;;1.40;;
39888;SDS011;25563;50.844;4.308;2024-03-23T11:38:01;6.07;;;1.58;;
39888;SDS011;25563;50.844;4.308;2024-03-23T11:40:37;2.85;;;1.33;;
39888;SDS011;25563;50.844;4.308;2024-03-23T11:43:08;4.13;;;1.38;;
39888;SDS011;25563;50.844;4.308;2024-03-23T11:45:36;6.47;;;2.10;;
39888;SDS011;25563;50.844;4.308;2024-03-23T11:48:21;4.53;;;0.82;;
39888;SDS011;25563;50.844;4.308;2024-03-23T11:50:48;4.60;;;1.35;;
39888;SDS011;25563;50.844;4.308;2024-03-23T11:53:16;7.22;;;0.98;;
39888;SDS011;25563;50.844;4.308;2024-03-23T11:58:14;8.13;;;1.40;;
39888;SDS011;25563;50.844;4.308;2024-03-23T12:00:41;3.40;;;1.05;;
39888;SDS011;25563;50.844;4.308;2024-03-23T12:03:07;6.88;;;1.48;;
39888;SDS011;25563;50.844;4.308;2024-03-23T12:05:35;6.38;;;1.65;;
39888;SDS011;25563;50.844;4.308;2024-03-23T12:10:53;6.60;;;1.42;;
39888;SDS011;25563;50.844;4.308;2024-03-23T12:13:29;4.18;;;1.30;;
39888;SDS011;25563;50.844;4.308;2024-03-23T12:16:08;5.30;;;1.40;;
39888;SDS011;25563;50.844;4.308;2024-03-23T12:18:35;4.13;;;1.00;;
39888;SDS011;25563;50.844;4.308;2024-03-23T12:21:01;7.45;;;1.17;;
39888;SDS011;25563;50.844;4.308;2024-03-23T12:23:27;4.35;;;0.90;;
39888;SDS011;25563;50.844;4.308;2024-03-23T12:25:53;5.50;;;1.23;;
39888;SDS011;25563;50.844;4.308;2024-03-23T12:28:19;9.63;;;0.80;;
39888;SDS011;25563;50.844;4.308;2024-03-23T12:30:45;4.45;;;0.80;;
39888;SDS011;25563;50.844;4.308;2024-03-23T12:33:11;7.55;;;1.33;;
39888;SDS011;25563;50.844;4.308;2024-03-23T12:35:37;5.65;;;1.48;;
39888;SDS011;25563;50.844;4.308;2024-03-23T12:38:03;3.85;;;1.08;;
39888;SDS011;25563;50.844;4.308;2024-03-23T12:40:29;7.25;;;2.22;;
39888;SDS011;25563;50.844;4.308;2024-03-23T12:42:55;5.93;;;1.38;;
39888;SDS011;25563;50.844;4.308;2024-03-23T12:45:21;3.47;;;1.17;;
39888;SDS011;25563;50.844;4.308;2024-03-23T12:47:48;6.57;;;1.42;;
39888;SDS011;25563;50.844;4.308;2024-03-23T12:50:14;2.92;;;1.02;;
39888;SDS011;25563;50.844;4.308;2024-03-23T12:52:42;2.55;;;1.30;;
39888;SDS011;25563;50.844;4.308;2024-03-23T12:55:07;2.88;;;1.27;;
39888;SDS011;25563;50.844;4.308;2024-03-23T12:57:33;6.18;;;1.40;;
39888;SDS011;25563;50.844;4.308;2024-03-23T12:59:59;2.25;;;0.88;;
39888;SDS011;25563;50.844;4.308;2024-03-23T13:02:25;4.63;;;0.95;;
39888;SDS011;25563;50.844;4.308;2024-03-23T13:04:51;4.85;;;1.30;;
39888;SDS011;25563;50.844;4.308;2024-03-23T13:07:18;1.77;;;1.10;;
39888;SDS011;25563;50.844;4.308;2024-03-23T13:09:45;4.25;;;1.13;;
39888;SDS011;25563;50.844;4.308;2024-03-23T13:12:11;3.65;;;1.00;;
39888;SDS011;25563;50.844;4.308;2024-03-23T13:14:40;2.15;;;0.90;;
39888;SDS011;25563;50.844;4.308;2024-03-23T13:17:06;2.63;;;1.17;;
39888;SDS011;25563;50.844;4.308;2024-03-23T13:19:32;3.25;;;1.20;;
39888;SDS011;25563;50.844;4.308;2024-03-23T13:21:58;6.13;;;1.10;;
39888;SDS011;25563;50.844;4.308;2024-03-23T13:24:25;3.38;;;0.88;;
39888;SDS011;25563;50.844;4.308;2024-03-23T13:29:20;7.00;;;1.48;;
39888;SDS011;25563;50.844;4.308;2024-03-23T13:31:49;3.47;;;1.30;;
39888;SDS011;25563;50.844;4.308;2024-03-23T13:34:16;4.15;;;0.98;;
39888;SDS011;25563;50.844;4.308;2024-03-23T13:36:46;10.00;;;1.42;;
39888;SDS011;25563;50.844;4.308;2024-03-23T13:39:13;2.63;;;1.13;;
39888;SDS011;25563;50.844;4.308;2024-03-23T13:41:40;2.92;;;1.42;;
39888;SDS011;25563;50.844;4.308;2024-03-23T13:44:08;4.70;;;1.20;;
39888;SDS011;25563;50.844;4.308;2024-03-23T13:46:38;2.55;;;0.90;;
39888;SDS011;25563;50.844;4.308;2024-03-23T13:49:08;2.28;;;0.90;;
39888;SDS011;25563;50.844;4.308;2024-03-23T13:51:49;6.13;;;1.55;;
39888;SDS011;25563;50.844;4.308;2024-03-23T13:54:15;4.15;;;1.45;;
39888;SDS011;25563;50.844;4.308;2024-03-23T13:56:40;3.60;;;1.27;;
39888;SDS011;25563;50.844;4.308;2024-03-23T13:59:06;4.40;;;1.20;;
39888;SDS011;25563;50.844;4.308;2024-03-23T14:01:32;2.85;;;1.02;;
39888;SDS011;25563;50.844;4.308;2024-03-23T14:03:58;4.78;;;1.25;;
39888;SDS011;25563;50.844;4.308;2024-03-23T14:06:25;2.38;;;1.10;;
39888;SDS011;25563;50.844;4.308;2024-03-23T14:08:51;6.10;;;1.02;;
39888;SDS011;25563;50.844;4.308;2024-03-23T14:11:17;1.75;;;1.00;;
39888;SDS011;25563;50.844;4.308;2024-03-23T14:13:45;2.42;;;1.10;;
39888;SDS011;25563;50.844;4.308;2024-03-23T14:16:10;5.82;;;1.80;;
39888;SDS011;25563;50.844;4.308;2024-03-23T14:18:36;3.47;;;1.10;;
39888;SDS011;25563;50.844;4.308;2024-03-23T14:21:02;3.05;;;1.27;;
39888;SDS011;25563;50.844;4.308;2024-03-23T14:23:30;3.60;;;1.38;;
39888;SDS011;25563;50.844;4.308;2024-03-23T14:25:59;1.90;;;1.02;;
39888;SDS011;25563;50.844;4.308;2024-03-23T14:28:25;6.25;;;1.95;;
39888;SDS011;25563;50.844;4.308;2024-03-23T14:30:51;3.63;;;1.30;;
39888;SDS011;25563;50.844;4.308;2024-03-23T14:33:20;4.63;;;1.70;;
39888;SDS011;25563;50.844;4.308;2024-03-23T14:35:52;2.28;;;1.02;;
39888;SDS011;25563;50.844;4.308;2024-03-23T14:38:22;3.33;;;1.10;;
39888;SDS011;25563;50.844;4.308;2024-03-23T14:40:48;3.47;;;1.00;;
39888;SDS011;25563;50.844;4.308;2024-03-23T14:43:14;3.72;;;1.15;;
39888;SDS011;25563;50.844;4.308;2024-03-23T14:48:34;3.28;;;1.20;;
39888;SDS011;25563;50.844;4.308;2024-03-23T14:51:01;4.55;;;1.30;;
39888;SDS011;25563;50.844;4.308;2024-03-23T14:53:32;4.55;;;1.20;;
39888;SDS011;25563;50.844;4.308;2024-03-23T14:55:59;4.15;;;1.35;;
39888;SDS011;25563;50.844;4.308;2024-03-23T14:58:26;8.00;;;1.77;;
39888;SDS011;25563;50.844;4.308;2024-03-23T15:00:52;2.53;;;1.10;;
39888;SDS011;25563;50.844;4.308;2024-03-23T15:03:18;3.38;;;1.25;;
39888;SDS011;25563;50.844;4.308;2024-03-23T15:06:02;3.72;;;1.42;;
39888;SDS011;25563;50.844;4.308;2024-03-23T15:08:28;3.80;;;1.30;;
39888;SDS011;25563;50.844;4.308;2024-03-23T15:10:54;5.00;;;1.60;;
39888;SDS011;25563;50.844;4.308;2024-03-23T15:13:20;4.22;;;1.80;;
39888;SDS011;25563;50.844;4.308;2024-03-23T15:15:47;2.70;;;1.17;;
39888;SDS011;25563;50.844;4.308;2024-03-23T15:18:16;6.55;;;1.48;;
39888;SDS011;25563;50.844;4.308;2024-03-23T15:20:57;3.42;;;1.52;;
39888;SDS011;25563;50.844;4.308;2024-03-23T15:23:31;4.10;;;1.48;;
39888;SDS011;25563;50.844;4.308;2024-03-23T15:25:58;2.97;;;1.35;;
39888;SDS011;25563;50.844;4.308;2024-03-23T15:28:25;5.05;;;1.55;;
39888;SDS011;25563;50.844;4.308;2024-03-23T15:30:53;5.38;;;1.48;;
39888;SDS011;25563;50.844;4.308;2024-03-23T15:33:18;3.42;;;1.15;;
39888;SDS011;25563;50.844;4.308;2024-03-23T15:35:44;3.90;;;1.10;;
39888;SDS011;25563;50.844;4.308;2024-03-23T15:38:10;5.20;;;1.75;;
39888;SDS011;25563;50.844;4.308;2024-03-23T15:40:36;6.35;;;1.98;;
39888;SDS011;25563;50.844;4.308;2024-03-23T15:43:01;5.60;;;1.38;;
39888;SDS011;25563;50.844;4.308;2024-03-23T15:45:27;6.93;;;1.70;;
39888;SDS011;25563;50.844;4.308;2024-03-23T15:47:53;7.78;;;1.40;;
39888;SDS011;25563;50.844;4.308;2024-03-23T15:50:18;5.45;;;1.60;;
39888;SDS011;25563;50.844;4.308;2024-03-23T15:52:44;3.00;;;1.27;;
39888;SDS011;25563;50.844;4.308;2024-03-23T15:55:10;7.05;;;1.67;;
39888;SDS011;25563;50.844;4.308;2024-03-23T15:57:36;4.68;;;1.77;;
39888;SDS011;25563;50.844;4.308;2024-03-23T16:00:02;6.55;;;1.98;;
39888;SDS011;25563;50.844;4.308;2024-03-23T16:02:29;4.50;;;1.58;;
39888;SDS011;25563;50.844;4.308;2024-03-23T16:04:54;6.40;;;1.50;;
39888;SDS011;25563;50.844;4.308;2024-03-23T16:07:21;5.40;;;1.10;;
39888;SDS011;25563;50.844;4.308;2024-03-23T16:09:47;4.38;;;1.30;;
39888;SDS011;25563;50.844;4.308;2024-03-23T16:12:13;3.38;;;1.48;;
39888;SDS011;25563;50.844;4.308;2024-03-23T16:14:38;2.13;;;1.08;;
39888;SDS011;25563;50.844;4.308;2024-03-23T16:17:04;3.65;;;1.20;;